Stephenville, Texas
Current Conditions -  °F | °C
As of 12:15 AM on Thursday 29 Jan 2015 (Local Time) from KSEP Reporting Station
Clear Clear  
Wind Chill: 59°   Ceiling: Unl
Heat Index: 59°   Visibility: 10mi
Dew Point: 39°   Wind: 3mph
Humidity: 47%   Direction: 190°S
Pressure: 30.11"   Gusts: NA
Location:  32.22°N, 98.2°W
Report Text: KSEP 290615Z AUTO 19003KT 10SM CLR 15/04 A3011 RMK AO2 T01490037
Loading
Personal Weather Stations






























Interactive Weather Map New forecast layout! Learn more

10-Day Weather Forecast

Advertisements
Track Severe Weather on mobile